地図

経路データ

SID SEASON NUMBER BASIN SUBBASIN NAME ISO_TIME NATURE LAT LON WMO_WIND WMO_PRES WMO_AGENCY TRACK_TYPE DIST2LAND LANDFALL IFLAG USA_AGENCY USA_ATCF_ID USA_LAT USA_LON USA_RECORD USA_STATUS USA_WIND USA_PRES USA_SSHS USA_R34_NE USA_R34_SE USA_R34_SW USA_R34_NW USA_R50_NE USA_R50_SE USA_R50_SW USA_R50_NW USA_R64_NE USA_R64_SE USA_R64_SW USA_R64_NW USA_POCI USA_ROCI USA_RMW USA_EYE TOKYO_LAT TOKYO_LON TOKYO_GRADE TOKYO_WIND TOKYO_PRES TOKYO_R50_DIR TOKYO_R50_LONG TOKYO_R50_SHORT TOKYO_R30_DIR TOKYO_R30_LONG TOKYO_R30_SHORT TOKYO_LAND CMA_LAT CMA_LON CMA_CAT CMA_WIND CMA_PRES HKO_LAT HKO_LON HKO_CAT HKO_WIND HKO_PRES NEWDELHI_LAT NEWDELHI_LON NEWDELHI_GRADE NEWDELHI_WIND NEWDELHI_PRES NEWDELHI_CI NEWDELHI_DP NEWDELHI_POCI REUNION_LAT REUNION_LON REUNION_TYPE REUNION_WIND REUNION_PRES REUNION_TNUM REUNION_CI REUNION_RMW REUNION_R34_NE REUNION_R34_SE REUNION_R34_SW REUNION_R34_NW REUNION_R50_NE REUNION_R50_SE REUNION_R50_SW REUNION_R50_NW REUNION_R64_NE REUNION_R64_SE REUNION_R64_SW REUNION_R64_NW BOM_LAT BOM_LON BOM_TYPE BOM_WIND BOM_PRES BOM_TNUM BOM_CI BOM_RMW BOM_R34_NE BOM_R34_SE BOM_R34_SW BOM_R34_NW BOM_R50_NE BOM_R50_SE BOM_R50_SW BOM_R50_NW BOM_R64_NE BOM_R64_SE BOM_R64_SW BOM_R64_NW BOM_ROCI BOM_POCI BOM_EYE BOM_POS_METHOD BOM_PRES_METHOD NADI_LAT NADI_LON NADI_CAT NADI_WIND NADI_PRES WELLINGTON_LAT WELLINGTON_LON WELLINGTON_WIND WELLINGTON_PRES DS824_LAT DS824_LON DS824_STAGE DS824_WIND DS824_PRES TD9636_LAT TD9636_LON TD9636_STAGE TD9636_WIND TD9636_PRES TD9635_LAT TD9635_LON TD9635_WIND TD9635_PRES TD9635_ROCI NEUMANN_LAT NEUMANN_LON NEUMANN_CLASS NEUMANN_WIND NEUMANN_PRES MLC_LAT MLC_LON MLC_CLASS MLC_WIND MLC_PRES USA_GUST BOM_GUST BOM_GUST_PER REUNION_GUST REUNION_GUST_PER USA_SEAHGT USA_SEARAD_NE USA_SEARAD_SE USA_SEARAD_SW USA_SEARAD_NW STORM_SPEED STORM_DIR
1996328N08151 1996 116 WP MM NOT_NAMED 1996-11-23 00:00:00 NR 8.00000 151.000 main 1199 1199 O_____________ jtwc_wp WP401996 8.00000 151.000 15 -1 2 313
1996328N08151 1996 116 WP MM NOT_NAMED 1996-11-23 03:00:00 NR 8.08501 150.913 main 1207 1203 P_____________ WP401996 8.08501 150.913 15 -1 3 315
1996328N08151 1996 116 WP MM NOT_NAMED 1996-11-23 06:00:00 NR 8.20000 150.800 main 1214 1214 O_____________ jtwc_wp WP401996 8.20000 150.800 15 -1 4 316
1996328N08151 1996 116 WP MM NOT_NAMED 1996-11-23 09:00:00 NR 8.36997 150.637 main 1229 1229 P_____________ WP401996 8.36997 150.637 15 -1 6 315
1996328N08151 1996 116 WP MM NOT_NAMED 1996-11-23 12:00:00 NR 8.60000 150.400 main 1244 1244 O_____________ jtwc_wp WP401996 8.60000 150.400 15 -1 7 313
1996328N08151 1996 116 WP MM NOT_NAMED 1996-11-23 15:00:00 NR 8.86992 150.102 main 1268 1265 P_____________ WP401996 8.86992 150.102 15 -1 9 311
1996328N08151 1996 116 WP MM NOT_NAMED 1996-11-23 18:00:00 NR 9.20000 149.700 main 1291 1289 O_____________ jtwc_wp WP401996 9.20000 149.700 15 -1 12 308
1996328N08151 1996 116 WP MM NOT_NAMED 1996-11-23 21:00:00 NR 9.57751 149.187 main 1326 1324 P_____________ WP401996 9.57751 149.187 15 -1 14 306
1996328N08151 1996 116 WP MM NOT_NAMED 1996-11-24 00:00:00 NR 10.0000 148.600 main 1362 1361 O_____________ jtwc_wp WP401996 10.0000 148.600 15 -1 15 307
1996328N08151 1996 116 WP MM NOT_NAMED 1996-11-24 03:00:00 NR 10.4574 148.015 main 1413 1412 P_____________ WP401996 10.4574 148.015 15 -1 15 307
1996328N08151 1996 116 WP MM NOT_NAMED 1996-11-24 06:00:00 NR 10.9000 147.400 main 1456 1456 O_____________ jtwc_wp WP401996 10.9000 147.400 15 -1 15 303
1996328N08151 1996 116 WP MM NOT_NAMED 1996-11-24 09:00:00 NR 11.2649 146.757 main 1501 1501 P_____________ WP401996 11.2649 146.757 17 -1 15 299
1996328N08151 1996 116 WP MM NOT_NAMED 1996-11-24 12:00:00 NR 11.6000 146.100 main 1536 1536 O_____________ jtwc_wp WP401996 11.6000 146.100 20 -1 14 297
1996328N08151 1996 116 WP MM NOT_NAMED 1996-11-24 15:00:00 NR 11.9199 145.442 main 1574 1574 P_____________ WP401996 11.9199 145.442 20 -1 15 299
1996328N08151 1996 116 WP MM NOT_NAMED 1996-11-24 18:00:00 NR 12.3000 144.800 main 1625 1625 O_____________ jtwc_wp WP401996 12.3000 144.800 20 -1 15 305
1996328N08151 1996 116 WP MM NOT_NAMED 1996-11-24 21:00:00 NR 12.7901 144.155 main 1690 1690 P_____________ WP401996 12.7901 144.155 20 -1 16 313
1996328N08151 1996 116 WP MM NOT_NAMED 1996-11-25 00:00:00 NR 13.4000 143.600 main 1767 1767 O_____________ jtwc_wp WP401996 13.4000 143.600 20 -1 17 325
1996328N08151 1996 116 WP MM NOT_NAMED 1996-11-25 03:00:00 NR 14.1423 143.197 main 1843 1843 P_____________ WP401996 14.1423 143.197 20 -1 17 336
1996328N08151 1996 116 WP MM NOT_NAMED 1996-11-25 06:00:00 NR 14.9000 142.900 main 1904 1890 O_____________ jtwc_wp WP401996 14.9000 142.900 20 -1 15 339
1996328N08151 1996 116 WP MM NOT_NAMED 1996-11-25 09:00:00 NR 15.5448 142.650 main 1883 1871 P_____________ WP401996 15.5448 142.650 22 -1 13 338
1996328N08151 1996 116 WP MM NOT_NAMED 1996-11-25 12:00:00 NR 16.1000 142.400 main 1873 1851 O_____________ jtwc_wp WP401996 16.1000 142.400 25 -1 12 332
1996328N08151 1996 116 WP MM NOT_NAMED 1996-11-25 15:00:00 NR 16.6025 142.065 main 1854 1823 P_____________ WP401996 16.6025 142.065 25 -1 11 323
1996328N08151 1996 116 WP MM NOT_NAMED 1996-11-25 18:00:00 NR 17.0000 141.700 main 1823 1799 O_____________ jtwc_wp WP401996 17.0000 141.700 25 -1 10 315
1996328N08151 1996 116 WP MM NOT_NAMED 1996-11-25 21:00:00 NR 17.2949 141.350 main 1792 1768 P_____________ WP401996 17.2949 141.350 25 -1 8 307
1996328N08151 1996 116 WP MM NOT_NAMED 1996-11-26 00:00:00 NR 17.5000 141.000 main 1768 1741 O_____________ jtwc_wp WP401996 17.5000 141.000 25 -1 8 299
1996328N08151 1996 116 WP MM NOT_NAMED 1996-11-26 03:00:00 NR 17.6649 140.650 main 1734 1708 P_____________ WP401996 17.6649 140.650 25 -1 7 294
1996328N08151 1996 116 WP MM NOT_NAMED 1996-11-26 06:00:00 NR 17.8000 140.300 main 1708 1682 O_____________ jtwc_wp WP401996 17.8000 140.300 25 -1 7 293
1996328N08151 1996 116 WP MM NOT_NAMED 1996-11-26 09:00:00 NR 17.9575 139.943 main 1676 1650 P_____________ WP401996 17.9575 139.943 25 -1 7 294
1996328N08151 1996 116 WP MM NOT_NAMED 1996-11-26 12:00:00 NR 18.1000 139.600 main 1650 1625 O_____________ jtwc_wp WP401996 18.1000 139.600 25 -1 7 293
1996328N08151 1996 116 WP MM NOT_NAMED 1996-11-26 15:00:00 NR 18.2224 139.285 main 1625 1600 P_____________ WP401996 18.2224 139.285 25 -1 6 289
1996328N08151 1996 116 WP MM NOT_NAMED 1996-11-26 18:00:00 NR 18.3000 139.000 main 1600 1571 O_____________ jtwc_wp WP401996 18.3000 139.000 25 -1 5 282
1996328N08151 1996 116 WP MM NOT_NAMED 1996-11-26 21:00:00 NR 18.3300 138.735 main 1571 1552 P_____________ WP401996 18.3300 138.735 25 -1 5 270
1996328N08151 1996 116 WP MM NOT_NAMED 1996-11-27 00:00:00 NR 18.3000 138.500 main 1552 1528 O_____________ jtwc_wp WP401996 18.3000 138.500 25 -1 4 257
1996328N08151 1996 116 WP MM NOT_NAMED 1996-11-27 03:00:00 NR 18.2300 138.293 main 1528 1504 P_____________ WP401996 18.2300 138.293 25 -1 4 242
1996328N08151 1996 116 WP MM NOT_NAMED 1996-11-27 06:00:00 NR 18.1000 138.100 main 1504 1476 O_____________ jtwc_wp WP401996 18.1000 138.100 25 -1 5 230
1996328N08151 1996 116 WP MM NOT_NAMED 1996-11-27 09:00:00 NR 17.9374 137.923 main 1476 1447 P_____________ WP401996 17.9374 137.923 22 -1 6 224
1996328N08151 1996 116 WP MM NOT_NAMED 1996-11-27 12:00:00 NR 17.7000 137.700 main 1447 1405 O_____________ jtwc_wp WP401996 17.7000 137.700 20 -1 7 222
1996328N08151 1996 116 WP MM NOT_NAMED 1996-11-27 15:00:00 NR 17.3873 137.403 main 1405 1349 P_____________ WP401996 17.3873 137.403 20 -1 10 224
1996328N08151 1996 116 WP MM NOT_NAMED 1996-11-27 18:00:00 NR 17.0000 137.000 main 1349 1283 O_____________ jtwc_wp WP401996 17.0000 137.000 20 -1 12 225
1996328N08151 1996 116 WP MM NOT_NAMED 1996-11-27 21:00:00 NR 16.5274 136.502 main 1279 1203 P_____________ WP401996 16.5274 136.502 20 -1 14 230
1996328N08151 1996 116 WP MM NOT_NAMED 1996-11-28 00:00:00 NR 16.1000 135.900 main 1203 1131 O_____________ jtwc_wp WP401996 16.1000 135.900 20 -1 14 240
1996328N08151 1996 116 WP MM NOT_NAMED 1996-11-28 03:00:00 NR 15.8251 135.215 main 1121 1047 P_____________ WP401996 15.8251 135.215 22 -1 14 253
1996328N08151 1996 116 WP MM NOT_NAMED 1996-11-28 06:00:00 NR 15.7000 134.500 main 1047 987 O_____________ jtwc_wp WP401996 15.7000 134.500 25 -1 13 265
1996328N08151 1996 116 WP MM NOT_NAMED 1996-11-28 09:00:00 NR 15.7049 133.828 main 977 923 P_____________ WP401996 15.7049 133.828 25 -1 13 275
1996328N08151 1996 116 WP MM NOT_NAMED 1996-11-28 12:00:00 NR 15.8000 133.200 main 923 880 O_____________ jtwc_wp WP401996 15.8000 133.200 25 -1 12 280
1996328N08151 1996 116 WP MM NOT_NAMED 1996-11-28 15:00:00 NR 15.9148 132.620 main 870 829 P_____________ WP401996 15.9148 132.620 25 -1 11 281
1996328N08151 1996 116 WP MM NOT_NAMED 1996-11-28 18:00:00 NR 16.0000 132.100 main 829 783 O_____________ jtwc_wp WP401996 16.0000 132.100 25 -1 10 276
1996328N08151 1996 116 WP MM NOT_NAMED 1996-11-28 21:00:00 NR 16.0099 131.613 main 783 741 P_____________ WP401996 16.0099 131.613 25 -1 9 263
1996328N08151 1996 116 WP MM NOT_NAMED 1996-11-29 00:00:00 NR 15.9000 131.200 main 741 702 O_____________ jtwc_wp WP401996 15.9000 131.200 25 -1 8 244
1996328N08151 1996 116 WP MM NOT_NAMED 1996-11-29 03:00:00 NR 15.6524 130.847 main 693 651 P_____________ WP401996 15.6524 130.847 25 -1 8 224
1996328N08151 1996 116 WP MM NOT_NAMED 1996-11-29 06:00:00 NR 15.3000 130.600 main 651 619 O_____________ jtwc_wp WP401996 15.3000 130.600 25 -1 8 204
1996328N08151 1996 116 WP MM NOT_NAMED 1996-11-29 09:00:00 NR 14.8924 130.493 main 619 589 P_____________ WP401996 14.8924 130.493 25 -1 8 194
1996328N08151 1996 116 WP MM NOT_NAMED 1996-11-29 12:00:00 NR 14.5000 130.400 main 589 556 O_____________ jtwc_wp WP401996 14.5000 130.400 25 -1 7 204
1996328N08151 1996 116 WP MM NOT_NAMED 1996-11-29 15:00:00 NR 14.2125 130.180 main 556 517 P_____________ WP401996 14.2125 130.180 25 -1 7 224
1996328N08151 1996 116 WP MM NOT_NAMED 1996-11-29 18:00:00 NR 14.0000 129.900 main 517 479 O_____________ jtwc_wp WP401996 14.0000 129.900 25 -1 7 235
1996328N08151 1996 116 WP MM NOT_NAMED 1996-11-29 21:00:00 NR 13.8350 129.615 main 479 444 P_____________ WP401996 13.8350 129.615 25 -1 7 243
1996328N08151 1996 116 WP MM NOT_NAMED 1996-11-30 00:00:00 NR 13.7000 129.300 main 444 410 O_____________ jtwc_wp WP401996 13.7000 129.300 25 -1 7 246
1996328N08151 1996 116 WP MM NOT_NAMED 1996-11-30 03:00:00 NR 13.5499 128.965 main 406 362 P_____________ WP401996 13.5499 128.965 25 -1 7 246
1996328N08151 1996 116 WP MM NOT_NAMED 1996-11-30 06:00:00 NR 13.4000 128.600 main 362 317 O_____________ jtwc_wp WP401996 13.4000 128.600 25 -1 8 248
1996328N08151 1996 116 WP MM NOT_NAMED 1996-11-30 09:00:00 NR 13.2575 128.208 main 317 269 P_____________ WP401996 13.2575 128.208 25 -1 8 249
1996328N08151 1996 116 WP MM NOT_NAMED 1996-11-30 12:00:00 NR 13.1000 127.800 main 269 220 O_____________ jtwc_wp WP401996 13.1000 127.800 25 -1 9 248
1996328N08151 1996 116 WP MM NOT_NAMED 1996-11-30 15:00:00 NR 12.9300 127.393 main 220 172 P_____________ WP401996 12.9300 127.393 25 -1 9 243
1996328N08151 1996 116 WP MM NOT_NAMED 1996-11-30 18:00:00 NR 12.7000 127.000 main 172 121 O_____________ jtwc_wp WP401996 12.7000 127.000 25 -1 9 235
1996328N08151 1996 116 WP MM NOT_NAMED 1996-11-30 21:00:00 NR 12.3950 126.612 main 121 87 P_____________ WP401996 12.3950 126.612 22 -1 10 224
1996328N08151 1996 116 WP MM NOT_NAMED 1996-12-01 00:00:00 NR 12.0000 126.300 main 89 58 O_____________ jtwc_wp WP401996 12.0000 126.300 20 -1 10 209
1996328N08151 1996 116 WP MM NOT_NAMED 1996-12-01 03:00:00 NR 11.5224 126.113 main 55 21 P_____________ WP401996 11.5224 126.113 20 -1 10 196
1996328N08151 1996 116 WP MM NOT_NAMED 1996-12-01 06:00:00 NR 11.0000 126.000 main 21 21 O_____________ jtwc_wp WP401996 11.0000 126.000 20 -1 11 192
1996328N08151 1996 116 WP MM NOT_NAMED 1996-12-01 09:00:00 NR 10.4850 125.885 main 57 40 P_____________ WP401996 10.4850 125.885 20 -1 10 191
1996328N08151 1996 116 WP MM NOT_NAMED 1996-12-01 12:00:00 NR 10.0000 125.800 main 40 0 O_____________ jtwc_wp WP401996 10.0000 125.800 20 -1 9 189
1996328N08151 1996 116 WP MM NOT_NAMED 1996-12-01 15:00:00 NR 9.57750 125.743 main 0 0 P_____________ WP401996 9.57750 125.743 17 -1 8 187
1996328N08151 1996 116 WP MM NOT_NAMED 1996-12-01 18:00:00 NR 9.20000 125.700 main 0 0 O_____________ jtwc_wp WP401996 9.20000 125.700 15 -1 7 187
1996328N08151 1996 116 WP MM NOT_NAMED 1996-12-01 21:00:00 NR 8.84500 125.652 main 0 0 P_____________ WP401996 8.84500 125.652 12 -1 7 188
1996328N08151 1996 116 WP MM NOT_NAMED 1996-12-02 00:00:00 NR 8.50000 125.600 main 0 O_____________ jtwc_wp WP401996 8.50000 125.600 10 -1 7 189

デジタル台風データ・検索

IBTrACS Databaseについて

本データベースは、米国NOAAが公開する1842年以降の世界の熱帯低気圧のベストトラックデータアーカイブInternational Best Track Archive for Climate Stewardship (IBTrACS)を、ウェブで閲覧しやすい形式に変換したものです。

最終更新日:2021-10-08